Time;durP1;ratioP1;P1;durP2;ratioP2;P2;SDS_P1;SDS_P2;PMS_P1;PMS_P2;Temp;Humidity;BMP_temperature;BMP_pressure;BME280_temperature;BME280_humidity;BME280_pressure;Samples;Min_cycle;Max_cycle;Signal;HPM_P1;HPM_P2
2022/07/08 00:01:06;;;;;;;3.47;2.33;;;;;;;26.26;54.68;101251.16;5074620;28;20051;-77
2022/07/08 00:03:33;;;;;;;3.60;2.65;;;;;;;26.28;54.54;101261.81;5074650;28;20040;-77
2022/07/08 00:06:01;;;;;;;4.18;2.47;;;;;;;26.29;54.50;101261.69;5073098;28;20045;-77
2022/07/08 00:08:30;;;;;;;3.20;2.38;;;;;;;26.30;54.37;101262.53;5074673;28;20052;-76
2022/07/08 00:10:58;;;;;;;2.90;2.33;;;;;;;26.32;54.59;101265.91;5072586;28;20049;-76
2022/07/08 00:13:26;;;;;;;3.60;2.05;;;;;;;26.31;54.45;101256.91;5074690;28;20075;-75
2022/07/08 00:15:53;;;;;;;3.80;2.55;;;;;;;26.32;54.56;101260.47;5073105;28;20044;-76
2022/07/08 00:18:20;;;;;;;3.67;2.30;;;;;;;26.32;54.45;101265.91;5074060;28;20048;-76
2022/07/08 00:20:48;;;;;;;3.00;2.47;;;;;;;26.34;54.41;101263.88;5074375;28;20055;-76
2022/07/08 00:23:15;;;;;;;4.03;2.50;;;;;;;26.34;54.38;101264.72;5074835;28;20041;-76
2022/07/08 00:25:43;;;;;;;3.92;2.53;;;;;;;26.36;54.42;101275.41;5074214;28;20040;-76
2022/07/08 00:28:10;;;;;;;3.70;2.40;;;;;;;26.36;54.37;101268.09;5074379;28;20045;-76
2022/07/08 00:30:37;;;;;;;2.65;2.00;;;;;;;26.37;54.41;101261.69;5075626;28;20037;-77
2022/07/08 00:33:05;;;;;;;3.40;2.40;;;;;;;26.37;54.09;101264.41;5074231;28;20045;-76
2022/07/08 00:35:32;;;;;;;3.30;2.42;;;;;;;26.37;54.33;101261.69;5074858;28;20044;-76
2022/07/08 00:37:59;;;;;;;6.78;2.58;;;;;;;26.38;54.32;101271.53;5074117;28;20063;-76
2022/07/08 00:40:27;;;;;;;4.00;2.50;;;;;;;26.40;54.47;101274.06;5075591;28;20047;-76
2022/07/08 00:42:54;;;;;;;3.42;2.42;;;;;;;26.41;54.17;101272.19;5073469;28;20044;-76
2022/07/08 00:45:22;;;;;;;5.35;2.72;;;;;;;26.42;54.15;101282.91;5072849;28;20052;-76
2022/07/08 00:47:49;;;;;;;3.75;2.42;;;;;;;26.43;54.33;101273.72;5073786;28;20443;-76
2022/07/08 00:50:17;;;;;;;3.50;2.22;;;;;;;26.44;54.34;101275.41;5072328;28;20045;-76
2022/07/08 00:52:45;;;;;;;3.28;2.13;;;;;;;26.43;54.24;101276.44;5074073;28;20045;-76
2022/07/08 00:55:12;;;;;;;4.03;2.25;;;;;;;26.44;54.23;101275.41;5073004;28;20047;-76
2022/07/08 00:57:40;;;;;;;3.78;2.22;;;;;;;26.45;54.31;101271.72;5073712;28;20349;-76
2022/07/08 01:00:08;;;;;;;4.70;2.67;;;;;;;26.45;54.22;101271.72;5073269;28;20041;-76
2022/07/08 01:02:36;;;;;;;3.50;2.33;;;;;;;26.46;54.18;101276.16;5073330;28;20055;-75
2022/07/08 01:05:03;;;;;;;2.70;1.95;;;;;;;26.46;54.00;101276.16;5072490;28;20048;-76
2022/07/08 01:07:31;;;;;;;2.88;2.22;;;;;;;26.47;54.20;101266.97;5073294;28;20048;-76
2022/07/08 01:09:59;;;;;;;4.18;2.25;;;;;;;26.47;54.10;101269.69;5074060;28;20037;-76
2022/07/08 01:12:26;;;;;;;4.13;2.35;;;;;;;26.47;54.17;101261.53;5072282;28;20044;-75
2022/07/08 01:14:54;;;;;;;3.33;2.72;;;;;;;26.48;54.20;101263.22;5073537;28;20071;-76
2022/07/08 01:17:27;;;;;;;3.80;2.40;;;;;;;26.49;54.20;101261.38;5073141;28;20480;-76
2022/07/08 01:19:55;;;;;;;4.63;2.45;;;;;;;26.50;54.19;101266.66;5073602;28;20040;-75
2022/07/08 01:22:22;;;;;;;3.97;2.13;;;;;;;26.51;54.13;101256.63;5073002;28;20400;-75
2022/07/08 01:24:50;;;;;;;3.15;2.42;;;;;;;26.51;53.90;101268.34;5071401;28;20048;-75
2022/07/08 01:27:17;;;;;;;3.60;2.13;;;;;;;26.52;54.17;101263.75;5073398;28;20040;-76
2022/07/08 01:29:45;;;;;;;2.58;2.00;;;;;;;26.53;54.07;101266.28;5071992;28;20063;-76
2022/07/08 01:32:12;;;;;;;5.28;2.50;;;;;;;26.52;54.16;101266.47;5073490;28;20049;-75
2022/07/08 01:34:39;;;;;;;3.92;2.55;;;;;;;26.53;54.12;101269.00;5073683;28;20048;-75
2022/07/08 01:37:07;;;;;;;4.25;2.53;;;;;;;26.53;54.09;101271.72;5071247;28;20052;-75
2022/07/08 01:39:34;;;;;;;3.15;2.00;;;;;;;26.54;54.03;101272.59;5072727;28;20064;-76
2022/07/08 01:42:01;;;;;;;4.72;2.90;;;;;;;26.55;54.00;101268.84;5072905;28;20372;-75
2022/07/08 01:44:29;;;;;;;4.80;2.25;;;;;;;26.55;54.16;101277.00;5071618;28;20501;-76
2022/07/08 01:46:56;;;;;;;2.60;2.10;;;;;;;26.56;53.91;101273.25;5072944;28;20048;-75
2022/07/08 01:49:24;;;;;;;3.22;2.40;;;;;;;26.55;54.37;101272.41;5073570;28;20380;-77
2022/07/08 01:51:51;;;;;;;3.22;2.28;;;;;;;26.56;54.15;101274.09;5072922;28;20510;-77
2022/07/08 01:54:18;;;;;;;4.10;2.25;;;;;;;26.57;54.01;101269.50;5073058;28;20056;-77
2022/07/08 01:56:46;;;;;;;3.33;2.00;;;;;;;26.57;54.01;101269.50;5072734;28;20381;-77
2022/07/08 01:59:13;;;;;;;3.58;2.40;;;;;;;26.57;54.10;101278.50;5070645;28;20056;-77
2022/07/08 02:01:41;;;;;;;3.20;2.40;;;;;;;26.58;54.35;101280.22;5072905;28;20467;-77
2022/07/08 02:04:09;;;;;;;2.97;2.40;;;;;;;26.59;53.87;101281.91;5072698;28;20434;-77
2022/07/08 02:06:36;;;;;;;4.22;2.63;;;;;;;26.60;54.13;101285.47;5076226;28;20051;-77
2022/07/08 02:09:03;;;;;;;3.55;2.58;;;;;;;26.59;54.23;101290.06;5076587;28;20051;-77
2022/07/08 02:14:16;;;;;;;5.60;2.67;;;;;;;26.61;53.89;101293.44;5075022;28;20052;-77
2022/07/08 02:16:44;;;;;;;2.97;2.65;;;;;;;26.61;53.95;101296.16;5076434;28;20394;-76
2022/07/08 02:19:11;;;;;;;4.78;2.72;;;;;;;26.60;54.41;101299.91;5077287;28;20048;-76
2022/07/08 02:21:38;;;;;;;4.82;2.58;;;;;;;26.61;54.00;101304.31;5077203;28;20040;-76
2022/07/08 02:24:06;;;;;;;3.25;2.40;;;;;;;26.61;53.90;101315.16;5076366;28;20045;-76
2022/07/08 02:26:33;;;;;;;3.45;2.60;;;;;;;26.63;53.98;101326.72;5076608;28;20048;-76
2022/07/08 02:29:01;;;;;;;3.67;2.80;;;;;;;26.63;54.03;101321.28;5076368;28;20052;-75
2022/07/08 02:31:35;;;;;;;4.20;2.72;;;;;;;26.64;54.05;101324.84;5076318;28;20041;-75
2022/07/08 02:34:03;;;;;;;3.35;2.40;;;;;;;26.63;54.33;101321.28;5076190;28;20045;-76
2022/07/08 02:36:30;;;;;;;2.97;2.25;;;;;;;26.65;53.90;101328.41;5075987;28;20088;-76
2022/07/08 02:38:58;;;;;;;3.30;2.58;;;;;;;26.66;54.01;101327.41;5075849;28;20059;-75
2022/07/08 02:41:25;;;;;;;3.63;2.58;;;;;;;26.65;54.13;101325.69;5075873;28;20103;-75
2022/07/08 02:43:52;;;;;;;3.22;2.63;;;;;;;26.66;54.12;101327.41;5075874;28;20044;-75
2022/07/08 02:46:20;;;;;;;3.53;2.70;;;;;;;26.65;54.06;101331.13;5075809;28;20052;-76
2022/07/08 02:48:47;;;;;;;3.13;2.50;;;;;;;26.65;54.12;101334.69;5076269;28;20075;-76
2022/07/08 02:51:15;;;;;;;3.17;2.47;;;;;;;26.67;54.10;101335.41;5076550;28;20041;-76
2022/07/08 02:53:42;;;;;;;4.15;2.70;;;;;;;26.66;54.24;101340.97;5075689;28;20044;-76
2022/07/08 02:56:09;;;;;;;4.38;2.70;;;;;;;26.67;53.81;101339.97;5075680;28;20051;-77
2022/07/08 02:58:37;;;;;;;3.63;2.72;;;;;;;26.66;54.19;101346.41;5075509;28;20055;-77
2022/07/08 03:01:04;;;;;;;2.67;2.47;;;;;;;26.67;54.03;101350.84;5075520;28;20392;-77
2022/07/08 03:03:32;;;;;;;3.88;2.67;;;;;;;26.67;54.08;101345.41;5076286;28;20503;-76
2022/07/08 03:05:59;;;;;;;6.50;3.13;;;;;;;26.67;54.01;101348.13;5075495;28;20444;-75
2022/07/08 03:08:26;;;;;;;3.25;2.65;;;;;;;26.67;54.16;101345.41;5075716;28;20055;-75
2022/07/08 03:10:54;;;;;;;3.45;2.45;;;;;;;26.67;53.98;101345.41;5075427;28;20149;-76
2022/07/08 03:13:22;;;;;;;5.85;3.47;;;;;;;26.68;53.85;101355.25;5073845;28;20049;-76
2022/07/08 03:15:49;;;;;;;4.90;3.00;;;;;;;26.68;54.07;101366.13;5075392;28;20040;-76
2022/07/08 03:18:16;;;;;;;3.50;2.60;;;;;;;26.68;53.91;101364.25;5075069;28;20049;-76
2022/07/08 03:20:44;;;;;;;3.45;2.65;;;;;;;26.67;53.96;101372.56;5075342;28;20051;-76
2022/07/08 03:23:11;;;;;;;3.88;2.70;;;;;;;26.69;53.75;101374.09;5074243;28;20044;-77
2022/07/08 03:25:39;;;;;;;3.70;2.53;;;;;;;26.70;53.72;101377.66;5075089;28;20407;-77
2022/07/08 03:28:06;;;;;;;3.35;2.45;;;;;;;26.69;53.87;101371.38;5075551;28;20051;-76
2022/07/08 03:30:34;;;;;;;4.40;2.80;;;;;;;26.69;53.75;101376.81;5075328;28;20407;-76
2022/07/08 03:33:01;;;;;;;3.80;3.40;;;;;;;26.70;54.01;101388.50;5075378;28;20048;-77
2022/07/08 03:35:28;;;;;;;4.88;3.05;;;;;;;26.67;53.89;101388.88;5075140;28;20040;-77
2022/07/08 03:37:56;;;;;;;4.10;2.97;;;;;;;26.66;53.71;101379.88;5074693;28;20052;-77
2022/07/08 03:43:09;;;;;;;6.00;3.38;;;;;;;26.63;54.14;101391.91;5075251;28;20056;-77
2022/07/08 03:45:36;;;;;;;3.45;3.10;;;;;;;26.64;54.03;101390.03;5073454;28;20519;-77
2022/07/08 03:48:04;;;;;;;4.20;3.13;;;;;;;26.61;54.20;101382.22;5075460;28;20044;-77
2022/07/08 03:50:32;;;;;;;5.15;3.22;;;;;;;26.62;53.92;101379.34;5075284;28;20055;-77
2022/07/08 03:52:59;;;;;;;5.45;3.78;;;;;;;26.61;53.97;101382.22;5073784;28;20041;-77
2022/07/08 03:55:27;;;;;;;3.45;3.15;;;;;;;26.60;53.71;101381.38;5072967;28;20048;-77
2022/07/08 03:57:54;;;;;;;3.78;2.90;;;;;;;26.60;53.75;101380.53;5073341;28;20055;-77
2022/07/08 04:00:22;;;;;;;3.40;3.10;;;;;;;26.60;53.83;101388.66;5074594;28;20407;-77
2022/07/08 04:02:50;;;;;;;5.30;3.70;;;;;;;26.59;53.68;101381.56;5074993;28;20044;-77
2022/07/08 04:05:17;;;;;;;4.38;3.97;;;;;;;26.58;53.64;101388.84;5074956;28;20045;-77
2022/07/08 04:07:45;;;;;;;6.25;4.60;;;;;;;26.59;53.88;101381.56;5074324;28;20055;-77
2022/07/08 04:10:15;;;;;;;5.25;4.72;;;;;;;26.57;53.63;101384.41;5073365;28;20040;-77
2022/07/08 04:12:43;;;;;;;5.53;4.32;;;;;;;26.56;53.30;101380.00;5074458;28;20041;-77
2022/07/08 04:15:12;;;;;;;5.63;4.07;;;;;;;26.56;53.38;101376.44;5074326;28;20052;-76
2022/07/08 04:17:40;;;;;;;5.35;4.20;;;;;;;26.56;53.57;101382.72;5074118;28;20044;-77
2022/07/08 04:20:07;;;;;;;6.88;4.32;;;;;;;26.54;53.39;101395.63;5074537;28;20040;-77
2022/07/08 04:22:35;;;;;;;5.47;3.97;;;;;;;26.55;53.18;101401.91;5074455;28;20044;-75
2022/07/08 04:25:03;;;;;;;5.93;4.32;;;;;;;26.54;53.16;101406.50;5073936;28;20045;-76
2022/07/08 04:27:30;;;;;;;6.07;5.20;;;;;;;26.53;53.03;101402.06;5073902;28;20064;-76
2022/07/08 04:29:57;;;;;;;7.32;5.10;;;;;;;26.53;53.17;101414.78;5073532;28;20488;-76
2022/07/08 04:32:25;;;;;;;6.20;4.57;;;;;;;26.52;53.05;101413.09;5074028;28;20041;-76
2022/07/08 04:34:52;;;;;;;5.15;4.60;;;;;;;26.51;53.23;101417.69;5071662;28;20491;-76
2022/07/08 04:37:19;;;;;;;5.55;4.95;;;;;;;26.51;53.15;101416.84;5073517;28;20048;-77
2022/07/08 04:39:47;;;;;;;5.53;4.50;;;;;;;26.50;53.06;101404.28;5073710;28;20044;-77
2022/07/08 04:42:14;;;;;;;7.45;4.53;;;;;;;26.49;53.07;101411.53;5074309;28;20048;-76
2022/07/08 04:44:41;;;;;;;4.68;4.15;;;;;;;26.49;53.23;101414.25;5074110;28;20041;-76
2022/07/08 04:47:09;;;;;;;4.90;4.45;;;;;;;26.49;53.08;101419.69;5073527;28;20048;-76
2022/07/08 04:49:36;;;;;;;5.75;4.80;;;;;;;26.49;53.13;101421.56;5073659;28;20045;-76
2022/07/08 04:52:06;;;;;;;5.00;4.50;;;;;;;26.49;53.07;101416.13;5073974;28;20040;-76
2022/07/08 04:54:36;;;;;;;4.85;4.38;;;;;;;26.50;53.06;101415.13;5073400;28;20045;-76
2022/07/08 04:57:07;;;;;;;8.00;4.93;;;;;;;26.49;53.09;101416.97;5074008;28;20052;-76
2022/07/08 04:59:34;;;;;;;11.05;5.00;;;;;;;26.48;52.97;101426.16;5073888;28;20076;-76
2022/07/08 05:02:02;;;;;;;4.82;4.32;;;;;;;26.48;53.18;101423.44;5071952;28;20484;-76
2022/07/08 05:04:29;;;;;;;6.07;4.30;;;;;;;26.48;53.16;101419.88;5073334;28;20047;-76
2022/07/08 05:06:57;;;;;;;7.07;5.53;;;;;;;26.48;53.19;101419.88;5073089;28;20048;-77
2022/07/08 05:09:24;;;;;;;6.43;4.68;;;;;;;26.48;53.05;101423.44;5072989;28;20040;-76
2022/07/08 05:11:51;;;;;;;5.43;4.90;;;;;;;26.48;53.14;101426.16;5073055;28;20044;-76
2022/07/08 05:14:19;;;;;;;5.50;4.78;;;;;;;26.48;53.29;101425.28;5071790;28;20052;-77
2022/07/08 05:16:46;;;;;;;5.80;4.43;;;;;;;26.47;53.25;101432.59;5073031;28;20071;-76
2022/07/08 05:19:14;;;;;;;6.82;4.72;;;;;;;26.47;53.45;101435.31;5073561;28;20049;-77
2022/07/08 05:21:41;;;;;;;4.55;3.90;;;;;;;26.49;53.55;101438.69;5072915;28;20049;-76
2022/07/08 05:24:08;;;;;;;6.97;4.68;;;;;;;26.50;53.51;101436.84;5071360;28;20060;-76
2022/07/08 05:26:36;;;;;;;5.57;4.95;;;;;;;26.49;53.45;101427.00;5073027;28;20055;-76
2022/07/08 05:29:03;;;;;;;5.65;4.50;;;;;;;26.49;53.71;101433.28;5073098;28;20040;-76
2022/07/08 05:31:31;;;;;;;5.93;5.43;;;;;;;26.48;53.35;101437.00;5073096;28;20048;-76
2022/07/08 05:33:58;;;;;;;6.63;4.88;;;;;;;26.47;53.27;101440.75;5054396;28;20488;-77
2022/07/08 05:36:26;;;;;;;6.68;5.00;;;;;;;26.48;53.39;101442.44;5073174;28;20049;-77
2022/07/08 05:38:53;;;;;;;5.57;5.03;;;;;;;26.49;53.37;101440.56;5071666;28;20507;-77
2022/07/08 05:41:20;;;;;;;5.05;4.03;;;;;;;26.51;53.41;101438.56;5071709;28;20060;-77
2022/07/08 05:43:48;;;;;;;7.13;4.20;;;;;;;26.51;53.35;101439.41;5073553;28;20040;-77
2022/07/08 05:46:15;;;;;;;5.10;4.22;;;;;;;26.51;53.51;101442.13;5073343;28;20049;-76
2022/07/08 05:48:43;;;;;;;8.75;6.00;;;;;;;26.52;53.17;101456.53;5055868;28;20048;-76
2022/07/08 05:51:10;;;;;;;5.10;4.60;;;;;;;26.50;53.42;101455.88;5072979;28;20401;-76
2022/07/08 05:53:45;;;;;;;6.00;5.40;;;;;;;26.49;53.32;101457.69;5073583;28;20056;-77
2022/07/08 05:56:12;;;;;;;5.78;4.95;;;;;;;26.49;53.43;101468.56;5073368;28;20044;-77
2022/07/08 05:58:39;;;;;;;9.73;5.00;;;;;;;26.48;53.12;101469.59;5072728;28;20048;-76
2022/07/08 06:01:07;;;;;;;5.10;3.72;;;;;;;26.48;52.98;101468.75;5073305;28;20044;-77
2022/07/08 06:03:34;;;;;;;4.68;4.00;;;;;;;26.50;53.38;101480.31;5072637;28;20044;-77
2022/07/08 06:06:02;;;;;;;4.40;3.90;;;;;;;26.50;53.16;101475.72;5072588;28;20060;-76
2022/07/08 06:08:29;;;;;;;9.00;5.03;;;;;;;26.51;53.45;101477.41;5073097;28;20041;-78
2022/07/08 06:10:58;;;;;;;9.65;6.72;;;;;;;26.49;52.61;101479.44;5073103;28;20388;-77
2022/07/08 06:13:26;;;;;;;8.38;6.32;;;;;;;26.41;52.81;101475.81;5072982;28;20084;-77
2022/07/08 06:15:54;;;;;;;8.38;6.95;;;;;;;26.35;53.17;101470.00;5072617;28;20052;-77
2022/07/08 06:18:21;;;;;;;7.97;6.40;;;;;;;26.29;53.58;101469.81;5072001;28;20368;-76
2022/07/08 06:20:48;;;;;;;7.13;6.43;;;;;;;26.26;53.47;101475.59;5073305;28;20115;-76
2022/07/08 06:23:16;;;;;;;10.13;6.47;;;;;;;26.24;53.77;101474.88;5073459;28;20063;-77
2022/07/08 06:25:43;;;;;;;8.68;7.82;;;;;;;26.22;54.27;101471.50;5074887;28;20052;-75
2022/07/08 06:28:10;;;;;;;7.05;6.32;;;;;;;26.13;53.31;101479.59;5075048;28;20119;-77
2022/07/08 06:30:38;;;;;;;7.80;7.00;;;;;;;25.99;53.34;101485.59;5076509;28;20439;-76
2022/07/08 06:33:05;;;;;;;7.88;5.88;;;;;;;25.93;54.00;101477.25;5074138;28;20055;-78
2022/07/08 06:35:33;;;;;;;10.25;8.25;;;;;;;25.83;54.28;101480.91;5074697;28;20400;-77
2022/07/08 06:38:01;;;;;;;8.95;7.57;;;;;;;25.70;54.60;101480.47;5072775;28;20056;-76
2022/07/08 06:40:28;;;;;;;7.80;6.57;;;;;;;25.68;54.56;101481.59;5072952;28;20052;-76
2022/07/08 06:42:56;;;;;;;9.63;6.10;;;;;;;25.68;54.67;101485.16;5072220;28;20527;-76
2022/07/08 06:45:23;;;;;;;7.60;5.35;;;;;;;25.71;54.67;101481.31;5072298;28;20040;-76
2022/07/08 06:47:51;;;;;;;6.82;6.00;;;;;;;25.72;54.37;101481.13;5072571;28;20049;-78
2022/07/08 06:50:18;;;;;;;9.43;6.50;;;;;;;25.71;54.20;101484.00;5073073;28;20047;-78
2022/07/08 06:52:45;;;;;;;6.28;5.60;;;;;;;25.71;54.12;101484.00;5075369;28;20048;-78
2022/07/08 06:55:13;;;;;;;8.07;5.07;;;;;;;25.68;54.09;101485.16;5076411;28;20045;-77
2022/07/08 06:57:40;;;;;;;8.27;4.40;;;;;;;25.67;54.36;101483.47;5075974;28;20055;-78
2022/07/08 07:00:08;;;;;;;9.48;5.57;;;;;;;25.67;54.78;101480.75;5074394;28;20049;-77
2022/07/08 07:02:46;;;;;;;7.68;4.68;;;;;;;25.64;54.79;101483.78;5083684;28;20470;-77
2022/07/08 07:05:14;;;;;;;7.32;5.15;;;;;;;25.62;54.67;101483.09;5095768;28;20502;-78
2022/07/08 07:07:41;;;;;;;9.43;5.65;;;;;;;25.60;54.79;101486.00;5096271;28;20043;-78
2022/07/08 07:10:09;;;;;;;8.00;5.63;;;;;;;25.58;54.86;101489.84;5095063;28;20044;-78
2022/07/08 07:12:36;;;;;;;6.10;4.63;;;;;;;25.55;54.93;101493.72;5096086;28;20043;-79
2022/07/08 07:15:04;;;;;;;10.50;5.75;;;;;;;25.53;55.14;101489.47;5096554;28;20055;-78
2022/07/08 07:17:31;;;;;;;5.78;5.00;;;;;;;25.48;55.25;101489.97;5096491;28;20056;-78
2022/07/08 07:19:59;;;;;;;5.47;4.28;;;;;;;25.49;55.33;101491.66;5096769;28;20058;-81
2022/07/08 07:22:27;;;;;;;5.63;3.70;;;;;;;25.53;55.54;101497.63;5094976;28;20055;-78
2022/07/08 07:24:54;;;;;;;5.25;3.85;;;;;;;25.54;55.85;101493.88;5096215;28;20047;-79
2022/07/08 07:27:22;;;;;;;6.90;4.20;;;;;;;25.55;55.81;101495.59;5096711;28;20048;-78
2022/07/08 07:29:49;;;;;;;5.70;3.83;;;;;;;25.54;55.67;101492.03;5096397;28;20103;-78
2022/07/08 07:32:16;;;;;;;6.78;3.65;;;;;;;25.56;55.80;101495.44;5095640;28;20048;-78
2022/07/08 07:34:44;;;;;;;7.18;3.95;;;;;;;25.59;55.54;101491.53;5094033;28;20036;-78
2022/07/08 07:37:11;;;;;;;8.10;4.18;;;;;;;25.58;55.43;101496.13;5095237;28;20040;-78
2022/07/08 07:39:39;;;;;;;7.18;3.92;;;;;;;25.55;55.66;101503.72;5055226;28;20373;-78
2022/07/08 07:42:06;;;;;;;7.70;3.70;;;;;;;25.52;55.51;101501.31;5053858;28;20045;-81
2022/07/08 07:44:34;;;;;;;10.13;3.05;;;;;;;25.55;55.31;101501.84;5054582;28;20045;-77
2022/07/08 07:47:02;;;;;;;5.65;2.70;;;;;;;25.58;55.69;101501.53;5055831;28;20045;-77
2022/07/08 07:49:29;;;;;;;4.32;2.75;;;;;;;25.63;55.91;101503.78;5055247;28;20045;-78
2022/07/08 07:51:56;;;;;;;9.80;4.63;;;;;;;25.64;55.81;101500.06;5054899;28;20401;-78
2022/07/08 07:54:24;;;;;;;7.88;3.80;;;;;;;25.62;55.67;101496.66;5055216;28;20511;-77
2022/07/08 07:56:55;;;;;;;7.10;4.25;;;;;;;25.57;55.78;101504.44;5055007;28;20052;-78
2022/07/08 07:59:22;;;;;;;6.43;3.10;;;;;;;25.56;55.93;101497.28;5055386;28;20052;-77
2022/07/08 08:01:50;;;;;;;5.22;2.90;;;;;;;25.58;55.97;101498.84;5055881;28;20052;-79
2022/07/08 08:04:17;;;;;;;5.15;2.83;;;;;;;25.62;55.64;101502.94;5055447;28;20041;-78
2022/07/08 08:06:45;;;;;;;11.98;2.67;;;;;;;25.68;55.63;101503.31;5054786;28;20396;-78
2022/07/08 08:09:19;;;;;;;3.35;2.20;;;;;;;25.74;55.64;101505.41;5054668;28;20048;-78
2022/07/08 08:11:46;;;;;;;4.70;3.17;;;;;;;25.77;55.92;101510.53;5054950;28;20056;-78
2022/07/08 08:14:13;;;;;;;6.35;3.30;;;;;;;25.78;55.99;101504.09;5053692;28;20049;-78
2022/07/08 08:16:41;;;;;;;7.43;3.65;;;;;;;25.78;55.83;101504.09;5055691;28;20056;-79
2022/07/08 08:19:08;;;;;;;5.35;3.63;;;;;;;25.76;55.96;101508.78;5055260;28;20049;-79
2022/07/08 08:21:36;;;;;;;6.43;3.28;;;;;;;25.74;56.13;101505.41;5053576;28;20049;-78
2022/07/08 08:24:05;;;;;;;6.63;4.18;;;;;;;25.72;56.15;101502.81;5053807;28;20503;-78
2022/07/08 08:26:33;;;;;;;5.90;3.20;;;;;;;25.73;56.28;101511.84;5054752;28;20476;-78
2022/07/08 08:29:00;;;;;;;5.57;3.22;;;;;;;25.73;56.24;101517.28;5054896;28;20056;-79
2022/07/08 08:31:28;;;;;;;5.75;2.95;;;;;;;25.75;55.81;101513.38;5055091;28;20045;-79
2022/07/08 08:33:56;;;;;;;5.25;2.65;;;;;;;25.80;55.96;101513.78;5053935;28;20052;-79
2022/07/08 08:36:23;;;;;;;4.13;2.83;;;;;;;25.86;56.21;101517.72;5054382;28;20056;-80
2022/07/08 08:38:50;;;;;;;6.05;3.30;;;;;;;25.92;55.85;101516.22;5082510;28;20078;-79
2022/07/08 08:41:18;;;;;;;5.35;3.60;;;;;;;25.96;55.94;101514.91;5094644;28;20047;-79
2022/07/08 08:43:45;;;;;;;6.93;3.03;;;;;;;25.96;56.37;101515.75;5095349;28;20040;-77
2022/07/08 08:46:17;;;;;;;6.30;2.95;;;;;;;25.96;55.63;101514.91;5092940;28;20413;-78
2022/07/08 08:48:47;;;;;;;5.65;2.90;;;;;;;25.94;55.63;101520.50;5095081;28;20040;-77
2022/07/08 08:51:19;;;;;;;5.13;2.72;;;;;;;25.96;55.47;101523.03;5095311;28;20048;-78
2022/07/08 08:53:47;;;;;;;4.15;2.53;;;;;;;25.97;56.00;101513.88;5095209;28;20040;-77
2022/07/08 08:56:16;;;;;;;4.65;2.90;;;;;;;25.95;56.30;101522.19;5094896;28;20044;-78
2022/07/08 08:58:47;;;;;;;3.90;3.20;;;;;;;25.94;56.20;101516.94;5095127;28;20407;-78
2022/07/08 09:01:16;;;;;;;3.90;2.60;;;;;;;25.94;56.56;101525.94;5094139;28;20479;-77
2022/07/08 09:03:45;;;;;;;3.88;2.60;;;;;;;25.94;56.46;101517.78;5095216;28;20036;-82
2022/07/08 09:06:12;;;;;;;4.80;3.03;;;;;;;25.93;56.08;101521.53;5094465;28;20048;-81
2022/07/08 09:08:40;;;;;;;4.75;2.60;;;;;;;25.93;56.10;101521.53;5094690;28;20368;-79
2022/07/08 09:11:08;;;;;;;6.13;2.45;;;;;;;25.94;56.09;101516.94;5094924;28;20047;-81
2022/07/08 09:13:35;;;;;;;7.65;2.70;;;;;;;25.94;56.28;101520.50;5094269;28;20048;-80
2022/07/08 09:16:08;;;;;;;6.90;2.78;;;;;;;25.93;56.42;101516.09;5094598;28;20400;-81
2022/07/08 09:18:38;;;;;;;5.82;2.75;;;;;;;25.94;56.39;101506.94;5094520;28;20398;-81
2022/07/08 09:21:07;;;;;;;5.70;2.53;;;;;;;25.93;56.60;101505.25;5094516;28;20514;-76
2022/07/08 09:23:36;;;;;;;6.32;2.28;;;;;;;25.95;56.61;101508.63;5094284;28;20407;-80
2022/07/08 09:26:10;;;;;;;4.25;2.38;;;;;;;25.94;55.67;101504.22;5094258;28;20048;-78
2022/07/08 09:28:43;;;;;;;4.03;1.90;;;;;;;25.97;57.22;101514.75;5093888;28;20048;-79
2022/07/08 09:31:15;;;;;;;4.00;2.15;;;;;;;25.98;57.47;101516.47;5094752;28;20044;-78
2022/07/08 09:33:43;;;;;;;3.87;2.03;;;;;;;25.99;56.98;101512.72;5093259;28;20060;-78
2022/07/08 09:36:11;;;;;;;3.70;2.35;;;;;;;26.02;57.76;101511.56;5093969;28;20506;-78
2022/07/08 09:38:40;;;;;;;4.60;2.38;;;;;;;26.03;57.96;101510.56;5092403;28;20056;-81
2022/07/08 09:41:12;;;;;;;4.53;1.92;;;;;;;26.04;56.92;101504.94;5093168;28;20040;-79
2022/07/08 09:43:50;;;;;;;3.03;1.83;;;;;;;26.04;55.02;101507.66;5093658;28;20048;-81
2022/07/08 09:46:20;;;;;;;6.68;2.20;;;;;;;26.04;54.68;101507.66;5094264;28;20441;-80
2022/07/08 09:48:48;;;;;;;3.10;1.52;;;;;;;26.06;56.22;101513.81;5093125;28;20044;-77
2022/07/08 09:51:16;;;;;;;2.30;1.60;;;;;;;26.07;56.35;101510.06;5093105;28;20045;-82
2022/07/08 09:53:44;;;;;;;2.78;1.67;;;;;;;26.09;56.29;101513.50;5093262;28;20376;-78
2022/07/08 09:56:11;;;;;;;3.67;1.85;;;;;;;26.12;56.46;101506.88;5095202;28;20051;-81
2022/07/08 09:58:38;;;;;;;3.67;2.08;;;;;;;26.14;57.04;101507.56;5095514;28;20055;-81
2022/07/08 10:01:07;;;;;;;4.05;1.58;;;;;;;26.12;53.27;101505.00;5093121;28;20067;-78
2022/07/08 10:03:35;;;;;;;3.60;1.42;;;;;;;26.12;52.11;101502.28;5093143;28;20384;-79
2022/07/08 10:06:04;;;;;;;2.80;1.45;;;;;;;26.13;52.66;101505.88;5092520;28;20036;-78
2022/07/08 10:08:32;;;;;;;3.22;1.73;;;;;;;26.14;54.24;101502.16;5092461;28;20055;-81
2022/07/08 10:11:05;;;;;;;3.90;1.58;;;;;;;26.17;54.57;101495.53;5074442;28;20068;-80
2022/07/08 10:13:34;;;;;;;4.28;1.70;;;;;;;26.19;55.13;101493.53;5093008;28;20057;-77
2022/07/08 10:16:04;;;;;;;7.10;1.70;;;;;;;26.21;54.00;101497.78;5093556;28;20047;-78
2022/07/08 10:18:44;;;;;;;4.28;1.63;;;;;;;26.21;53.50;101486.94;5093163;28;20051;-81
2022/07/08 10:21:16;;;;;;;5.30;1.50;;;;;;;26.23;52.84;101492.19;5093545;28;20052;-79
2022/07/08 10:23:52;;;;;;;3.08;1.50;;;;;;;26.24;52.69;101502.88;5093519;28;20040;-84
2022/07/08 10:26:27;;;;;;;5.15;1.52;;;;;;;26.26;51.26;101498.16;5093794;28;20047;-88
2022/07/08 10:29:08;;;;;;;4.13;1.30;;;;;;;26.31;51.83;101497.66;5096090;28;20079;-77
2022/07/08 10:31:46;;;;;;;3.38;1.17;;;;;;;26.33;52.01;101498.31;5098628;28;20055;-81
2022/07/08 10:34:19;;;;;;;4.47;1.77;;;;;;;26.35;51.02;101505.31;5098472;28;20048;-80
2022/07/08 10:36:51;;;;;;;3.55;1.48;;;;;;;26.40;49.60;101496.66;5097440;28;20048;-80
2022/07/08 10:39:37;;;;;;;3.42;1.40;;;;;;;26.42;48.58;101499.25;5097070;28;20044;-82
2022/07/08 10:42:07;;;;;;;2.92;1.75;;;;;;;26.43;49.42;101490.94;5097671;28;20055;-78
2022/07/08 10:44:43;;;;;;;3.83;1.58;;;;;;;26.45;50.52;101490.78;5098525;28;20055;-80
2022/07/08 10:47:16;;;;;;;3.83;1.42;;;;;;;26.45;50.17;101488.06;5096596;28;20052;-78
2022/07/08 10:49:44;;;;;;;2.38;1.50;;;;;;;26.45;50.36;101491.63;5097634;28;20048;-78
2022/07/08 10:52:13;;;;;;;3.95;1.60;;;;;;;26.45;50.55;101493.50;5096766;28;20407;-78
2022/07/08 10:54:42;;;;;;;3.25;1.30;;;;;;;26.50;48.71;101489.28;5096445;28;20044;-78
2022/07/08 10:57:24;;;;;;;2.17;1.58;;;;;;;26.53;49.05;101488.94;5096281;28;20044;-77
2022/07/08 11:00:02;;;;;;;;;;;;;;;26.54;49.54;101490.66;5095214;28;20048;-77
2022/07/08 11:02:30;;;;;;;2.85;1.67;;;;;;;26.55;49.93;101488.81;5096746;28;19920;-78
2022/07/08 11:04:57;;;;;;;3.13;1.23;;;;;;;26.63;48.68;101488.84;5096381;28;20043;-78
2022/07/08 11:07:27;;;;;;;2.15;1.20;;;;;;;26.61;49.59;101488.13;5097392;28;20047;-78
2022/07/08 11:10:11;;;;;;;3.42;1.63;;;;;;;26.58;49.23;101481.19;5095427;28;20040;-78
2022/07/08 11:12:41;;;;;;;4.88;2.03;;;;;;;26.58;49.12;101478.47;5096204;28;20055;-78
2022/07/08 11:15:16;;;;;;;3.47;1.88;;;;;;;26.59;50.26;101482.03;5096245;28;20040;-78
2022/07/08 11:17:50;;;;;;;3.50;1.58;;;;;;;26.59;48.67;101488.31;5094512;28;20048;-78
2022/07/08 11:20:18;;;;;;;2.78;1.45;;;;;;;26.60;49.21;101473.69;5096438;28;20055;-79
2022/07/08 11:22:45;;;;;;;3.10;1.70;;;;;;;26.62;48.10;101479.00;5095792;28;20054;-79
2022/07/08 11:25:14;;;;;;;2.85;1.80;;;;;;;26.61;48.69;101475.41;5095686;28;20051;-77
2022/07/08 11:27:43;;;;;;;2.97;1.40;;;;;;;26.60;50.01;101470.16;5096728;28;20044;-78
2022/07/08 11:30:13;;;;;;;3.97;1.40;;;;;;;26.58;50.77;101473.03;5096244;28;20047;-79
2022/07/08 11:32:42;;;;;;;3.45;1.35;;;;;;;26.56;50.27;101466.91;5095572;28;20099;-78
2022/07/08 11:35:10;;;;;;;4.43;1.58;;;;;;;26.55;50.59;101465.22;5095847;28;20043;-79